sensor_id;sensor_type;location;lat;lon;timestamp;pressure;altitude;pressure_sealevel;temperature;humidity
62725;BME280;49026;52.600;4.694;2023-11-18T00:01:54;102302.19;;;4.06;96.88
62725;BME280;49026;52.600;4.694;2023-11-18T00:04:21;102310.91;;;4.10;96.79
62725;BME280;49026;52.600;4.694;2023-11-18T00:06:47;102309.22;;;4.15;97.21
62725;BME280;49026;52.600;4.694;2023-11-18T00:09:13;102310.97;;;4.16;97.80
62725;BME280;49026;52.600;4.694;2023-11-18T00:11:39;102311.88;;;4.20;97.83
62725;BME280;49026;52.600;4.694;2023-11-18T00:14:04;102315.34;;;4.20;97.25
62725;BME280;49026;52.600;4.694;2023-11-18T00:16:30;102306.69;;;4.21;96.77
62725;BME280;49026;52.600;4.694;2023-11-18T00:18:55;102305.78;;;4.21;97.35
62725;BME280;49026;52.600;4.694;2023-11-18T00:21:21;102301.47;;;4.20;97.36
62725;BME280;49026;52.600;4.694;2023-11-18T00:23:46;102291.94;;;4.22;97.39
62725;BME280;49026;52.600;4.694;2023-11-18T00:26:11;102291.94;;;4.22;97.84
62725;BME280;49026;52.600;4.694;2023-11-18T00:28:38;102285.88;;;4.21;98.03
62725;BME280;49026;52.600;4.694;2023-11-18T00:31:04;102299.75;;;4.22;97.93
62725;BME280;49026;52.600;4.694;2023-11-18T00:33:29;102303.19;;;4.21;97.70
62725;BME280;49026;52.600;4.694;2023-11-18T00:35:57;102312.75;;;4.22;97.30
62725;BME280;49026;52.600;4.694;2023-11-18T00:38:26;102312.69;;;4.17;97.81
62725;BME280;49026;52.600;4.694;2023-11-18T00:40:51;102301.44;;;4.17;97.87
62725;BME280;49026;52.600;4.694;2023-11-18T00:43:17;102297.94;;;4.15;97.77
62725;BME280;49026;52.600;4.694;2023-11-18T00:45:42;102310.09;;;4.13;97.93
62725;BME280;49026;52.600;4.694;2023-11-18T00:48:09;102308.34;;;4.13;97.73
62725;BME280;49026;52.600;4.694;2023-11-18T00:50:37;102316.16;;;4.13;97.75
62725;BME280;49026;52.600;4.694;2023-11-18T00:53:04;102320.50;;;4.16;97.71
62725;BME280;49026;52.600;4.694;2023-11-18T00:55:30;102313.59;;;4.18;97.71
62725;BME280;49026;52.600;4.694;2023-11-18T00:57:57;102323.16;;;4.20;98.20
62725;BME280;49026;52.600;4.694;2023-11-18T01:00:25;102317.13;;;4.23;97.30
62725;BME280;49026;52.600;4.694;2023-11-18T01:02:52;102315.41;;;4.25;97.54
62725;BME280;49026;52.600;4.694;2023-11-18T01:05:19;102308.47;;;4.27;97.82
62725;BME280;49026;52.600;4.694;2023-11-18T01:07:49;102311.09;;;4.29;97.41
62725;BME280;49026;52.600;4.694;2023-11-18T01:10:15;102318.91;;;4.30;97.82
62725;BME280;49026;52.600;4.694;2023-11-18T01:12:42;102304.19;;;4.32;97.61
62725;BME280;49026;52.600;4.694;2023-11-18T01:15:11;102305.94;;;4.35;97.98
62725;BME280;49026;52.600;4.694;2023-11-18T01:17:38;102303.38;;;4.36;97.46
62725;BME280;49026;52.600;4.694;2023-11-18T01:20:03;102306.84;;;4.38;97.34
62725;BME280;49026;52.600;4.694;2023-11-18T01:22:36;102302.53;;;4.42;97.73
62725;BME280;49026;52.600;4.694;2023-11-18T01:25:03;102301.69;;;4.44;97.59
62725;BME280;49026;52.600;4.694;2023-11-18T01:27:29;102302.56;;;4.47;97.34
62725;BME280;49026;52.600;4.694;2023-11-18T01:29:58;102306.91;;;4.48;97.83
62725;BME280;49026;52.600;4.694;2023-11-18T01:32:23;102305.22;;;4.50;98.65
62725;BME280;49026;52.600;4.694;2023-11-18T01:34:48;102302.63;;;4.50;98.86
62725;BME280;49026;52.600;4.694;2023-11-18T01:37:16;102307.84;;;4.53;98.73
62725;BME280;49026;52.600;4.694;2023-11-18T01:39:41;102311.34;;;4.55;98.83
62725;BME280;49026;52.600;4.694;2023-11-18T01:42:06;102300.94;;;4.56;98.46
62725;BME280;49026;52.600;4.694;2023-11-18T01:44:32;102319.16;;;4.58;98.32
62725;BME280;49026;52.600;4.694;2023-11-18T01:47:01;102316.59;;;4.59;98.20
62725;BME280;49026;52.600;4.694;2023-11-18T01:49:28;102312.25;;;4.61;98.05
62725;BME280;49026;52.600;4.694;2023-11-18T01:51:54;102325.28;;;4.61;97.76
62725;BME280;49026;52.600;4.694;2023-11-18T01:54:21;102325.31;;;4.64;98.51
62725;BME280;49026;52.600;4.694;2023-11-18T01:56:48;102325.31;;;4.69;99.13
62725;BME280;49026;52.600;4.694;2023-11-18T01:59:16;102324.50;;;4.73;99.15
62725;BME280;49026;52.600;4.694;2023-11-18T02:01:49;102320.19;;;4.77;99.31
62725;BME280;49026;52.600;4.694;2023-11-18T02:04:18;102328.03;;;4.81;99.28
62725;BME280;49026;52.600;4.694;2023-11-18T02:06:45;102326.28;;;4.80;99.99
62725;BME280;49026;52.600;4.694;2023-11-18T02:09:12;102324.56;;;4.82;99.75
62725;BME280;49026;52.600;4.694;2023-11-18T02:11:43;102321.13;;;4.85;100.00
62725;BME280;49026;52.600;4.694;2023-11-18T02:14:13;102315.03;;;4.88;100.00
62725;BME280;49026;52.600;4.694;2023-11-18T02:16:44;102312.44;;;4.88;100.00
62725;BME280;49026;52.600;4.694;2023-11-18T02:19:19;102315.06;;;4.89;100.00
62725;BME280;49026;52.600;4.694;2023-11-18T02:21:55;102302.03;;;4.91;100.00
62725;BME280;49026;52.600;4.694;2023-11-18T02:24:28;102298.59;;;4.92;100.00
62725;BME280;49026;52.600;4.694;2023-11-18T02:26:59;102309.00;;;4.92;100.00
62725;BME280;49026;52.600;4.694;2023-11-18T02:29:34;102298.56;;;4.90;100.00
62725;BME280;49026;52.600;4.694;2023-11-18T02:32:28;102296.81;;;4.89;100.00
62725;BME280;49026;52.600;4.694;2023-11-18T02:35:15;102277.69;;;4.86;100.00
62725;BME280;49026;52.600;4.694;2023-11-18T02:37:45;102285.47;;;4.82;100.00
62725;BME280;49026;52.600;4.694;2023-11-18T02:40:16;102288.09;;;4.79;100.00
62725;BME280;49026;52.600;4.694;2023-11-18T02:42:46;102291.53;;;4.78;100.00
62725;BME280;49026;52.600;4.694;2023-11-18T02:45:15;102288.09;;;4.78;100.00
62725;BME280;49026;52.600;4.694;2023-11-18T02:47:44;102279.38;;;4.77;100.00
62725;BME280;49026;52.600;4.694;2023-11-18T02:50:09;102280.28;;;4.79;100.00
62725;BME280;49026;52.600;4.694;2023-11-18T02:52:41;102277.69;;;4.79;100.00
62725;BME280;49026;52.600;4.694;2023-11-18T02:55:08;102284.59;;;4.80;100.00
62725;BME280;49026;52.600;4.694;2023-11-18T02:57:37;102284.63;;;4.83;100.00
62725;BME280;49026;52.600;4.694;2023-11-18T03:00:08;102281.19;;;4.85;100.00
62725;BME280;49026;52.600;4.694;2023-11-18T03:02:42;102277.72;;;4.89;100.00
62725;BME280;49026;52.600;4.694;2023-11-18T03:05:08;102260.38;;;4.91;100.00
62725;BME280;49026;52.600;4.694;2023-11-18T03:07:36;102278.63;;;4.94;100.00
62725;BME280;49026;52.600;4.694;2023-11-18T03:10:02;102261.25;;;4.96;100.00
62725;BME280;49026;52.600;4.694;2023-11-18T03:12:28;102250.84;;;4.96;100.00
62725;BME280;49026;52.600;4.694;2023-11-18T03:14:55;102249.13;;;4.98;100.00
62725;BME280;49026;52.600;4.694;2023-11-18T03:17:22;102240.47;;;5.02;100.00
62725;BME280;49026;52.600;4.694;2023-11-18T03:19:47;102242.22;;;5.03;100.00
62725;BME280;49026;52.600;4.694;2023-11-18T03:22:13;102243.09;;;5.05;100.00
62725;BME280;49026;52.600;4.694;2023-11-18T03:24:38;102244.84;;;5.06;100.00
62725;BME280;49026;52.600;4.694;2023-11-18T03:27:06;102235.28;;;5.08;100.00
62725;BME280;49026;52.600;4.694;2023-11-18T03:29:33;102212.69;;;5.09;100.00
62725;BME280;49026;52.600;4.694;2023-11-18T03:31:59;102213.59;;;5.12;100.00
62725;BME280;49026;52.600;4.694;2023-11-18T03:34:25;102210.13;;;5.15;100.00
62725;BME280;49026;52.600;4.694;2023-11-18T03:36:52;102200.56;;;5.15;100.00
62725;BME280;49026;52.600;4.694;2023-11-18T03:39:20;102191.91;;;5.15;100.00
62725;BME280;49026;52.600;4.694;2023-11-18T03:41:46;102185.78;;;5.14;100.00
62725;BME280;49026;52.600;4.694;2023-11-18T03:44:16;102190.13;;;5.12;100.00
62725;BME280;49026;52.600;4.694;2023-11-18T03:46:42;102185.78;;;5.14;100.00
62725;BME280;49026;52.600;4.694;2023-11-18T03:49:07;102171.91;;;5.14;100.00
62725;BME280;49026;52.600;4.694;2023-11-18T03:51:35;102164.09;;;5.17;100.00
62725;BME280;49026;52.600;4.694;2023-11-18T03:54:01;102156.28;;;5.18;100.00
62725;BME280;49026;52.600;4.694;2023-11-18T03:56:28;102155.44;;;5.19;100.00
62725;BME280;49026;52.600;4.694;2023-11-18T03:58:54;102163.25;;;5.19;100.00
62725;BME280;49026;52.600;4.694;2023-11-18T04:01:24;102169.34;;;5.23;100.00
62725;BME280;49026;52.600;4.694;2023-11-18T04:03:53;102169.34;;;5.26;100.00
62725;BME280;49026;52.600;4.694;2023-11-18T04:06:21;102154.59;;;5.30;100.00
62725;BME280;49026;52.600;4.694;2023-11-18T04:08:47;102146.78;;;5.30;100.00
62725;BME280;49026;52.600;4.694;2023-11-18T04:11:16;102142.41;;;5.30;100.00
62725;BME280;49026;52.600;4.694;2023-11-18T04:13:41;102138.94;;;5.33;100.00
62725;BME280;49026;52.600;4.694;2023-11-18T04:16:16;102137.22;;;5.35;100.00
62725;BME280;49026;52.600;4.694;2023-11-18T04:18:46;102133.72;;;5.33;100.00
62725;BME280;49026;52.600;4.694;2023-11-18T04:21:13;102135.50;;;5.37;100.00
62725;BME280;49026;52.600;4.694;2023-11-18T04:23:40;102145.91;;;5.38;100.00
62725;BME280;49026;52.600;4.694;2023-11-18T04:26:08;102151.13;;;5.40;100.00
62725;BME280;49026;52.600;4.694;2023-11-18T04:28:35;102140.72;;;5.43;100.00
62725;BME280;49026;52.600;4.694;2023-11-18T04:31:00;102128.56;;;5.44;100.00
62725;BME280;49026;52.600;4.694;2023-11-18T04:33:27;102115.53;;;5.45;100.00
62725;BME280;49026;52.600;4.694;2023-11-18T04:35:54;102119.84;;;5.46;100.00
62725;BME280;49026;52.600;4.694;2023-11-18T04:38:22;102108.56;;;5.47;100.00
62725;BME280;49026;52.600;4.694;2023-11-18T04:40:47;102108.56;;;5.50;100.00
62725;BME280;49026;52.600;4.694;2023-11-18T04:43:15;102122.47;;;5.52;100.00
62725;BME280;49026;52.600;4.694;2023-11-18T04:45:42;102114.66;;;5.57;100.00
62725;BME280;49026;52.600;4.694;2023-11-18T04:48:07;102117.28;;;5.57;100.00
62725;BME280;49026;52.600;4.694;2023-11-18T04:50:33;102116.38;;;5.60;100.00
62725;BME280;49026;52.600;4.694;2023-11-18T04:52:59;102114.69;;;5.62;100.00
62725;BME280;49026;52.600;4.694;2023-11-18T04:55:24;102121.63;;;5.66;100.00
62725;BME280;49026;52.600;4.694;2023-11-18T04:57:51;102116.41;;;5.66;100.00
62725;BME280;49026;52.600;4.694;2023-11-18T05:00:17;102116.41;;;5.66;100.00
62725;BME280;49026;52.600;4.694;2023-11-18T05:02:47;102121.63;;;5.66;100.00
62725;BME280;49026;52.600;4.694;2023-11-18T05:05:16;102122.47;;;5.68;100.00
62725;BME280;49026;52.600;4.694;2023-11-18T05:07:41;102125.97;;;5.68;100.00
62725;BME280;49026;52.600;4.694;2023-11-18T05:10:08;102123.38;;;5.70;100.00
62725;BME280;49026;52.600;4.694;2023-11-18T05:12:38;102114.66;;;5.71;100.00
62725;BME280;49026;52.600;4.694;2023-11-18T05:15:07;102117.28;;;5.71;100.00
62725;BME280;49026;52.600;4.694;2023-11-18T05:17:36;102112.06;;;5.71;100.00
62725;BME280;49026;52.600;4.694;2023-11-18T05:20:05;102116.41;;;5.72;100.00
62725;BME280;49026;52.600;4.694;2023-11-18T05:22:36;102109.44;;;5.72;100.00
62725;BME280;49026;52.600;4.694;2023-11-18T05:25:02;102096.41;;;5.72;100.00
62725;BME280;49026;52.600;4.694;2023-11-18T05:27:29;102085.13;;;5.75;100.00
62725;BME280;49026;52.600;4.694;2023-11-18T05:29:54;102085.13;;;5.75;100.00
62725;BME280;49026;52.600;4.694;2023-11-18T05:32:23;102085.13;;;5.75;100.00
62725;BME280;49026;52.600;4.694;2023-11-18T05:34:50;102074.69;;;5.75;100.00
62725;BME280;49026;52.600;4.694;2023-11-18T05:37:18;102070.34;;;5.72;100.00
62725;BME280;49026;52.600;4.694;2023-11-18T05:39:46;102057.28;;;5.74;100.00
62725;BME280;49026;52.600;4.694;2023-11-18T05:42:14;102057.28;;;5.75;100.00
62725;BME280;49026;52.600;4.694;2023-11-18T05:44:40;102065.13;;;5.75;100.00
62725;BME280;49026;52.600;4.694;2023-11-18T05:47:08;102066.88;;;5.75;100.00
62725;BME280;49026;52.600;4.694;2023-11-18T05:49:39;102078.16;;;5.77;100.00
62725;BME280;49026;52.600;4.694;2023-11-18T05:52:05;102071.19;;;5.78;100.00
62725;BME280;49026;52.600;4.694;2023-11-18T05:54:32;102063.38;;;5.78;100.00
62725;BME280;49026;52.600;4.694;2023-11-18T05:56:57;102069.47;;;5.78;100.00
62725;BME280;49026;52.600;4.694;2023-11-18T05:59:25;102049.47;;;5.79;100.00
62725;BME280;49026;52.600;4.694;2023-11-18T06:01:52;102043.41;;;5.78;100.00
62725;BME280;49026;52.600;4.694;2023-11-18T06:04:17;102039.03;;;5.77;100.00
62725;BME280;49026;52.600;4.694;2023-11-18T06:06:42;102031.22;;;5.77;100.00
62725;BME280;49026;52.600;4.694;2023-11-18T06:09:08;102026.84;;;5.79;100.00
62725;BME280;49026;52.600;4.694;2023-11-18T06:11:40;102035.56;;;5.78;100.00
62725;BME280;49026;52.600;4.694;2023-11-18T06:14:06;102032.06;;;5.81;100.00
62725;BME280;49026;52.600;4.694;2023-11-18T06:16:33;102042.50;;;5.81;100.00
62725;BME280;49026;52.600;4.694;2023-11-18T06:19:00;102045.13;;;5.79;100.00
62725;BME280;49026;52.600;4.694;2023-11-18T06:21:29;102049.47;;;5.82;100.00
62725;BME280;49026;52.600;4.694;2023-11-18T06:23:58;102052.94;;;5.82;99.68
62725;BME280;49026;52.600;4.694;2023-11-18T06:26:27;102050.34;;;5.82;100.00
62725;BME280;49026;52.600;4.694;2023-11-18T06:28:56;102043.38;;;5.81;99.63
62725;BME280;49026;52.600;4.694;2023-11-18T06:31:22;102043.38;;;5.81;99.86
62725;BME280;49026;52.600;4.694;2023-11-18T06:33:50;102048.59;;;5.80;99.40
62725;BME280;49026;52.600;4.694;2023-11-18T06:38:44;102032.97;;;5.78;99.90
62725;BME280;49026;52.600;4.694;2023-11-18T06:41:10;102050.34;;;5.82;99.90
62725;BME280;49026;52.600;4.694;2023-11-18T06:43:38;102049.47;;;5.83;99.93
62725;BME280;49026;52.600;4.694;2023-11-18T06:46:19;102045.13;;;5.84;99.65
62725;BME280;49026;52.600;4.694;2023-11-18T06:48:52;102046.88;;;5.83;99.64
62725;BME280;49026;52.600;4.694;2023-11-18T06:51:22;102044.25;;;5.83;99.58
62725;BME280;49026;52.600;4.694;2023-11-18T06:53:57;102043.38;;;5.83;99.51
62725;BME280;49026;52.600;4.694;2023-11-18T06:56:23;102043.38;;;5.84;99.54
62725;BME280;49026;52.600;4.694;2023-11-18T06:58:49;102043.38;;;5.87;99.55
62725;BME280;49026;52.600;4.694;2023-11-18T07:01:15;102053.81;;;5.87;99.51
62725;BME280;49026;52.600;4.694;2023-11-18T07:03:44;102056.41;;;5.89;99.37
62725;BME280;49026;52.600;4.694;2023-11-18T07:06:16;102045.97;;;5.89;100.00
62725;BME280;49026;52.600;4.694;2023-11-18T07:08:49;102042.50;;;5.90;99.44
62725;BME280;49026;52.600;4.694;2023-11-18T07:11:16;102042.50;;;5.91;100.00
62725;BME280;49026;52.600;4.694;2023-11-18T07:13:42;102035.53;;;5.95;100.00
62725;BME280;49026;52.600;4.694;2023-11-18T07:16:07;102024.25;;;6.01;100.00
62725;BME280;49026;52.600;4.694;2023-11-18T07:18:34;102019.03;;;6.01;100.00
62725;BME280;49026;52.600;4.694;2023-11-18T07:21:00;102010.34;;;6.02;99.84
62725;BME280;49026;52.600;4.694;2023-11-18T07:23:27;102002.50;;;6.02;99.70
62725;BME280;49026;52.600;4.694;2023-11-18T07:25:53;101992.06;;;6.03;99.63
62725;BME280;49026;52.600;4.694;2023-11-18T07:28:18;101989.47;;;6.02;99.12
62725;BME280;49026;52.600;4.694;2023-11-18T07:30:44;102000.75;;;6.02;98.95
62725;BME280;49026;52.600;4.694;2023-11-18T07:33:16;102004.22;;;6.01;99.80
62725;BME280;49026;52.600;4.694;2023-11-18T07:35:42;102009.44;;;6.01;99.64
62725;BME280;49026;52.600;4.694;2023-11-18T07:38:10;102008.59;;;6.04;99.66
62725;BME280;49026;52.600;4.694;2023-11-18T07:40:36;101993.78;;;6.04;100.00
62725;BME280;49026;52.600;4.694;2023-11-18T07:43:03;101993.78;;;6.07;100.00
62725;BME280;49026;52.600;4.694;2023-11-18T07:45:34;101983.34;;;6.04;100.00
62725;BME280;49026;52.600;4.694;2023-11-18T07:48:05;101982.50;;;6.07;99.78
62725;BME280;49026;52.600;4.694;2023-11-18T07:50:40;101974.66;;;6.08;99.80
62725;BME280;49026;52.600;4.694;2023-11-18T07:53:09;101980.72;;;6.09;99.53
62725;BME280;49026;52.600;4.694;2023-11-18T07:55:42;101970.28;;;6.12;99.42
62725;BME280;49026;52.600;4.694;2023-11-18T07:58:09;101958.09;;;6.09;99.46
62725;BME280;49026;52.600;4.694;2023-11-18T08:00:41;101973.75;;;6.11;99.41
62725;BME280;49026;52.600;4.694;2023-11-18T08:03:16;101972.00;;;6.16;99.16
62725;BME280;49026;52.600;4.694;2023-11-18T08:05:43;101968.53;;;6.19;98.60
62725;BME280;49026;52.600;4.694;2023-11-18T08:08:12;101971.97;;;6.22;98.66
62725;BME280;49026;52.600;4.694;2023-11-18T08:10:40;101967.63;;;6.24;99.13
62725;BME280;49026;52.600;4.694;2023-11-18T08:13:07;101968.50;;;6.25;98.57
62725;BME280;49026;52.600;4.694;2023-11-18T08:15:40;101968.47;;;6.29;98.72
62725;BME280;49026;52.600;4.694;2023-11-18T08:18:05;101954.56;;;6.30;97.76
62725;BME280;49026;52.600;4.694;2023-11-18T08:20:31;101956.25;;;6.35;98.00
62725;BME280;49026;52.600;4.694;2023-11-18T08:23:00;101952.78;;;6.36;97.16
62725;BME280;49026;52.600;4.694;2023-11-18T08:25:25;101957.13;;;6.38;98.06
62725;BME280;49026;52.600;4.694;2023-11-18T08:27:51;101947.53;;;6.43;97.10
62725;BME280;49026;52.600;4.694;2023-11-18T08:30:16;101928.34;;;6.46;97.54
62725;BME280;49026;52.600;4.694;2023-11-18T08:32:46;101910.94;;;6.48;96.76
62725;BME280;49026;52.600;4.694;2023-11-18T08:35:13;101902.25;;;6.49;96.83
62725;BME280;49026;52.600;4.694;2023-11-18T08:37:42;101896.09;;;6.53;95.94
62725;BME280;49026;52.600;4.694;2023-11-18T08:40:08;101892.59;;;6.57;95.45
62725;BME280;49026;52.600;4.694;2023-11-18T08:42:54;101909.13;;;6.59;95.69
62725;BME280;49026;52.600;4.694;2023-11-18T08:45:27;101906.50;;;6.64;95.65
62725;BME280;49026;52.600;4.694;2023-11-18T08:47:57;101900.38;;;6.66;95.94
62725;BME280;49026;52.600;4.694;2023-11-18T08:50:23;101894.28;;;6.66;95.37
62725;BME280;49026;52.600;4.694;2023-11-18T08:52:52;101892.50;;;6.71;95.43
62725;BME280;49026;52.600;4.694;2023-11-18T08:55:23;101875.97;;;6.71;95.84
62725;BME280;49026;52.600;4.694;2023-11-18T08:58:03;101874.22;;;6.70;96.44
62725;BME280;49026;52.600;4.694;2023-11-18T09:00:40;101869.03;;;6.66;96.15
62725;BME280;49026;52.600;4.694;2023-11-18T09:03:23;101867.31;;;6.65;96.59
62725;BME280;49026;52.600;4.694;2023-11-18T09:05:59;101865.59;;;6.61;96.94
62725;BME280;49026;52.600;4.694;2023-11-18T09:08:36;101858.66;;;6.57;97.60
62725;BME280;49026;52.600;4.694;2023-11-18T09:11:05;101850.00;;;6.52;98.27
62725;BME280;49026;52.600;4.694;2023-11-18T09:13:31;101854.38;;;6.50;98.27
62725;BME280;49026;52.600;4.694;2023-11-18T09:16:03;101849.16;;;6.50;99.16
62725;BME280;49026;52.600;4.694;2023-11-18T09:18:30;101844.78;;;6.47;100.00
62725;BME280;49026;52.600;4.694;2023-11-18T09:20:59;101855.25;;;6.46;100.00
62725;BME280;49026;52.600;4.694;2023-11-18T09:23:27;101858.78;;;6.42;100.00
62725;BME280;49026;52.600;4.694;2023-11-18T09:25:53;101841.38;;;6.39;100.00
62725;BME280;49026;52.600;4.694;2023-11-18T09:28:20;101844.91;;;6.34;100.00
62725;BME280;49026;52.600;4.694;2023-11-18T09:30:45;101843.16;;;6.29;100.00
62725;BME280;49026;52.600;4.694;2023-11-18T09:33:25;101818.84;;;6.24;100.00
62725;BME280;49026;52.600;4.694;2023-11-18T09:35:54;101831.91;;;6.21;100.00
62725;BME280;49026;52.600;4.694;2023-11-18T09:38:32;101843.25;;;6.20;100.00
62725;BME280;49026;52.600;4.694;2023-11-18T09:41:02;101851.94;;;6.19;100.00
62725;BME280;49026;52.600;4.694;2023-11-18T09:43:32;101857.16;;;6.19;100.00
62725;BME280;49026;52.600;4.694;2023-11-18T09:46:14;101847.59;;;6.18;100.00
62725;BME280;49026;52.600;4.694;2023-11-18T09:48:47;101853.69;;;6.20;100.00
62725;BME280;49026;52.600;4.694;2023-11-18T09:51:28;101858.91;;;6.17;100.00
62725;BME280;49026;52.600;4.694;2023-11-18T09:53:59;101858.91;;;6.17;100.00
62725;BME280;49026;52.600;4.694;2023-11-18T09:59:10;101846.72;;;6.16;100.00
62725;BME280;49026;52.600;4.694;2023-11-18T10:01:42;101834.56;;;6.17;100.00
62725;BME280;49026;52.600;4.694;2023-11-18T10:04:09;101822.38;;;6.14;100.00
62725;BME280;49026;52.600;4.694;2023-11-18T10:06:37;101811.94;;;6.14;100.00
62725;BME280;49026;52.600;4.694;2023-11-18T10:09:08;101795.44;;;6.12;100.00
62725;BME280;49026;52.600;4.694;2023-11-18T10:11:47;101780.66;;;6.11;100.00
62725;BME280;49026;52.600;4.694;2023-11-18T10:14:14;101777.19;;;6.12;100.00
62725;BME280;49026;52.600;4.694;2023-11-18T10:16:41;101765.00;;;6.11;100.00
62725;BME280;49026;52.600;4.694;2023-11-18T10:19:07;101764.13;;;6.15;100.00
62725;BME280;49026;52.600;4.694;2023-11-18T10:21:39;101765.81;;;6.18;100.00
62725;BME280;49026;52.600;4.694;2023-11-18T10:24:08;101778.00;;;6.17;100.00
62725;BME280;49026;52.600;4.694;2023-11-18T10:26:41;101786.69;;;6.21;100.00
62725;BME280;49026;52.600;4.694;2023-11-18T10:29:09;101783.22;;;6.22;100.00
62725;BME280;49026;52.600;4.694;2023-11-18T10:31:34;101772.75;;;6.22;100.00
62725;BME280;49026;52.600;4.694;2023-11-18T10:34:03;101763.19;;;6.22;100.00
62725;BME280;49026;52.600;4.694;2023-11-18T10:36:31;101754.50;;;6.23;100.00
62725;BME280;49026;52.600;4.694;2023-11-18T10:38:58;101744.91;;;6.21;100.00
62725;BME280;49026;52.600;4.694;2023-11-18T10:41:29;101710.16;;;6.19;100.00
62725;BME280;49026;52.600;4.694;2023-11-18T10:44:06;101697.09;;;6.20;100.00
62725;BME280;49026;52.600;4.694;2023-11-18T10:46:32;101683.13;;;6.21;100.00
62725;BME280;49026;52.600;4.694;2023-11-18T10:48:58;101671.00;;;6.20;100.00
62725;BME280;49026;52.600;4.694;2023-11-18T10:51:23;101652.69;;;6.23;100.00
62725;BME280;49026;52.600;4.694;2023-11-18T10:53:52;101650.13;;;6.20;100.00
62725;BME280;49026;52.600;4.694;2023-11-18T10:56:26;101656.19;;;6.22;100.00
62725;BME280;49026;52.600;4.694;2023-11-18T10:59:05;101641.38;;;6.23;100.00
62725;BME280;49026;52.600;4.694;2023-11-18T11:01:35;101624.00;;;6.23;100.00
62725;BME280;49026;52.600;4.694;2023-11-18T11:04:10;101610.03;;;6.26;100.00
62725;BME280;49026;52.600;4.694;2023-11-18T11:06:38;101604.78;;;6.27;100.00
62725;BME280;49026;52.600;4.694;2023-11-18T11:09:06;101618.72;;;6.26;100.00
62725;BME280;49026;52.600;4.694;2023-11-18T11:14:21;101596.03;;;6.33;100.00
62725;BME280;49026;52.600;4.694;2023-11-18T11:16:54;101568.16;;;6.37;100.00
62725;BME280;49026;52.600;4.694;2023-11-18T11:19:30;101555.09;;;6.38;100.00
62725;BME280;49026;52.600;4.694;2023-11-18T11:22:11;101561.19;;;6.39;100.00
62725;BME280;49026;52.600;4.694;2023-11-18T11:28:27;101568.03;;;6.49;100.00
62725;BME280;49026;52.600;4.694;2023-11-18T11:30:42;101554.94;;;6.52;100.00
62725;BME280;49026;52.600;4.694;2023-11-18T11:33:53;101532.28;;;6.54;100.00
62725;BME280;49026;52.600;4.694;2023-11-18T11:36:02;101515.72;;;6.55;100.00
62725;BME280;49026;52.600;4.694;2023-11-18T11:38:29;101526.97;;;6.60;100.00
62725;BME280;49026;52.600;4.694;2023-11-18T11:40:57;101536.47;;;6.66;100.00
62725;BME280;49026;52.600;4.694;2023-11-18T11:43:27;101535.66;;;6.61;100.00
62725;BME280;49026;52.600;4.694;2023-11-18T11:45:54;101508.69;;;6.62;100.00
62725;BME280;49026;52.600;4.694;2023-11-18T11:48:21;101458.13;;;6.64;100.00
62725;BME280;49026;52.600;4.694;2023-11-18T11:54:11;101461.56;;;6.70;100.00
62725;BME280;49026;52.600;4.694;2023-11-18T11:56:51;101472.03;;;6.66;100.00
62725;BME280;49026;52.600;4.694;2023-11-18T11:59:55;101515.56;;;6.67;100.00
62725;BME280;49026;52.600;4.694;2023-11-18T12:02:28;101584.31;;;6.70;100.00
62725;BME280;49026;52.600;4.694;2023-11-18T12:04:57;101586.88;;;6.74;100.00
62725;BME280;49026;52.600;4.694;2023-11-18T12:07:31;101541.56;;;6.77;100.00
62725;BME280;49026;52.600;4.694;2023-11-18T12:10:08;101538.09;;;6.75;100.00
62725;BME280;49026;52.600;4.694;2023-11-18T12:12:39;101495.41;;;6.77;100.00
62725;BME280;49026;52.600;4.694;2023-11-18T12:15:05;101469.28;;;6.79;100.00
62725;BME280;49026;52.600;4.694;2023-11-18T12:20:42;101449.22;;;6.81;100.00
62725;BME280;49026;52.600;4.694;2023-11-18T12:23:10;101451.78;;;6.84;100.00
62725;BME280;49026;52.600;4.694;2023-11-18T12:25:43;101468.31;;;6.84;100.00
62725;BME280;49026;52.600;4.694;2023-11-18T12:28:17;101467.44;;;6.84;100.00
62725;BME280;49026;52.600;4.694;2023-11-18T12:30:47;101461.31;;;6.86;100.00
62725;BME280;49026;52.600;4.694;2023-11-18T12:34:12;101440.44;;;6.85;100.00
62725;BME280;49026;52.600;4.694;2023-11-18T12:36:56;101435.22;;;6.85;100.00
62725;BME280;49026;52.600;4.694;2023-11-18T12:39:51;101429.06;;;6.88;100.00
62725;BME280;49026;52.600;4.694;2023-11-18T12:43:03;101418.59;;;6.91;100.00
62725;BME280;49026;52.600;4.694;2023-11-18T12:48:43;101385.47;;;6.91;100.00
62725;BME280;49026;52.600;4.694;2023-11-18T12:51:13;101382.81;;;6.94;100.00
62725;BME280;49026;52.600;4.694;2023-11-18T12:53:47;101361.88;;;6.96;100.00
62725;BME280;49026;52.600;4.694;2023-11-18T12:56:20;101368.88;;;6.95;100.00
62725;BME280;49026;52.600;4.694;2023-11-18T12:58:50;101347.97;;;6.95;100.00
62725;BME280;49026;52.600;4.694;2023-11-18T13:01:16;101347.94;;;6.98;100.00
62725;BME280;49026;52.600;4.694;2023-11-18T13:03:42;101334.81;;;7.00;100.00
62725;BME280;49026;52.600;4.694;2023-11-18T13:06:14;101331.31;;;7.01;100.00
62725;BME280;49026;52.600;4.694;2023-11-18T13:08:40;101326.91;;;7.04;100.00
62725;BME280;49026;52.600;4.694;2023-11-18T13:11:06;101318.19;;;7.05;100.00
62725;BME280;49026;52.600;4.694;2023-11-18T13:13:38;101307.72;;;7.05;100.00
62725;BME280;49026;52.600;4.694;2023-11-18T13:16:04;101297.31;;;7.02;100.00
62725;BME280;49026;52.600;4.694;2023-11-18T13:18:41;101292.94;;;7.03;100.00
62725;BME280;49026;52.600;4.694;2023-11-18T13:21:07;101279.03;;;7.02;100.00
62725;BME280;49026;52.600;4.694;2023-11-18T13:23:32;101288.59;;;7.03;100.00
62725;BME280;49026;52.600;4.694;2023-11-18T13:25:57;101292.13;;;7.01;100.00